PWSweather.com
Personal Weather Stations
Station Observations
283002842
28300 Mainvilliers, France, MainvilliersFR 28300

28300 Mainvilliers, FranceMainvilliersFR 28300

Lat: 48.4504566, Lon: 1.4527078

Elevation: 156

Station Type: Station météorologique PCE-FWS20

http://meteo28300.fr

Latest ConditionsUpdated 3:35:00 AM GMT+01:01 Saturday, Feb 24, 2018
Currently Today's Max Today's Min Today's Average
Temperature 28.6°F-1.9°C 30.9°F-0.6°C 28.6°F-1.9°C 29.9°F-1.2°C
Dew Point 18.7°F-7.4°C 20.5°F-6.4°C 18.5°F-7.5°C 19.1°F-7.2°C
Winds 3.1 mph NW5.0 kmh NW 7.6 mph N12.2 kmh N - 3.8 mph 6.1 kmh
Wind Gusts 5.4 mph8.7 kmh 8.3 mph13.4 kmh - -
Humidity 66% 66% 63% 64%
Pressure 29.57 in1001.4 mb 29.58 in1001.7 mb 29.57 in1001.4 mb -
Hour Temp Dew Point Humidity Winds Wind Gusts Pressure Precip Precip Rate Daily Precip Total
03:35 AM 28.6°F-1.9°C 18.7°F-7.4°C 66% 3.1 mph NW5.0 kmh NW 5.4 mph8.7 kmh 29.57 in1001.4 mb 0.00 in0.0 mm 0.00 in0.0 mm 0.00 in0.0 mm
03:34 AM 28.6°F-1.9°C 18.7°F-7.4°C 66% 3.1 mph NW5.0 kmh NW 5.4 mph8.7 kmh 29.58 in1001.7 mb 0.00 in0.0 mm 0.00 in0.0 mm 0.00 in0.0 mm
03:33 AM 28.6°F-1.9°C 18.7°F-7.4°C 66% 2.2 mph NW3.5 kmh NW 5.4 mph8.7 kmh 29.58 in1001.7 mb 0.00 in0.0 mm 0.00 in0.0 mm 0.00 in0.0 mm
03:32 AM 28.6°F-1.9°C 18.7°F-7.4°C 66% 3.1 mph NW5.0 kmh NW 5.4 mph8.7 kmh 29.57 in1001.4 mb 0.00 in0.0 mm 0.00 in0.0 mm 0.00 in0.0 mm
03:31 AM 28.6°F-1.9°C 18.7°F-7.4°C 66% 3.8 mph NW6.1 kmh NW 5.4 mph8.7 kmh 29.57 in1001.4 mb 0.00 in0.0 mm 0.00 in0.0 mm 0.00 in0.0 mm
03:30 AM 28.6°F-1.9°C 18.7°F-7.4°C 66% 3.8 mph NW6.1 kmh NW 5.4 mph8.7 kmh 29.58 in1001.7 mb 0.00 in0.0 mm 0.00 in0.0 mm 0.00 in0.0 mm
03:29 AM 28.6°F-1.9°C 18.7°F-7.4°C 66% 3.8 mph NW6.1 kmh NW 5.4 mph8.7 kmh 29.58 in1001.7 mb 0.00 in0.0 mm 0.00 in0.0 mm 0.00 in0.0 mm
03:28 AM 28.6°F-1.9°C 18.7°F-7.4°C 66% 3.8 mph NW6.1 kmh NW 5.4 mph8.7 kmh 29.58 in1001.7 mb 0.00 in0.0 mm 0.00 in0.0 mm 0.00 in0.0 mm
03:27 AM 28.6°F-1.9°C 18.7°F-7.4°C 66% 3.8 mph NW6.1 kmh NW 5.4 mph8.7 kmh 29.58 in1001.7 mb 0.00 in0.0 mm 0.00 in0.0 mm 0.00 in0.0 mm
03:26 AM 28.6°F-1.9°C 18.7°F-7.4°C 66% 3.8 mph NW6.1 kmh NW 5.4 mph8.7 kmh 29.58 in1001.7 mb 0.00 in0.0 mm 0.00 in0.0 mm 0.00 in0.0 mm
03:25 AM 28.6°F-1.9°C 18.7°F-7.4°C 66% 3.8 mph NW6.1 kmh NW 5.4 mph8.7 kmh 29.58 in1001.7 mb 0.00 in0.0 mm 0.00 in0.0 mm 0.00 in0.0 mm
03:24 AM 28.6°F-1.9°C 18.7°F-7.4°C 66% 4.5 mph NW7.2 kmh NW 5.4 mph8.7 kmh 29.58 in1001.7 mb 0.00 in0.0 mm 0.00 in0.0 mm 0.00 in0.0 mm
03:23 AM 28.6°F-1.9°C 18.7°F-7.4°C 66% 3.8 mph NW6.1 kmh NW 5.4 mph8.7 kmh 29.57 in1001.4 mb 0.00 in0.0 mm 0.00 in0.0 mm 0.00 in0.0 mm
03:22 AM 28.6°F-1.9°C 18.7°F-7.4°C 66% 3.1 mph NW5.0 kmh NW 5.4 mph8.7 kmh 29.58 in1001.7 mb 0.00 in0.0 mm 0.00 in0.0 mm 0.00 in0.0 mm
03:21 AM 28.6°F-1.9°C 18.7°F-7.4°C 66% 3.8 mph NW6.1 kmh NW 6.0 mph9.7 kmh 29.58 in1001.7 mb 0.00 in0.0 mm 0.00 in0.0 mm 0.00 in0.0 mm
03:20 AM 28.8°F-1.8°C 18.8°F-7.3°C 66% 3.1 mph NW5.0 kmh NW 6.0 mph9.7 kmh 29.58 in1001.7 mb 0.00 in0.0 mm 0.00 in0.0 mm 0.00 in0.0 mm
03:19 AM 28.8°F-1.8°C 18.8°F-7.3°C 66% 3.8 mph NNW6.1 kmh NNW 6.0 mph9.7 kmh 29.57 in1001.4 mb 0.00 in0.0 mm 0.00 in0.0 mm 0.00 in0.0 mm
03:18 AM 28.8°F-1.8°C 18.8°F-7.3°C 66% 3.1 mph NNW5.0 kmh NNW 6.0 mph9.7 kmh 29.58 in1001.7 mb 0.00 in0.0 mm 0.00 in0.0 mm 0.00 in0.0 mm
03:17 AM 28.8°F-1.8°C 18.8°F-7.3°C 66% 2.2 mph NNW3.5 kmh NNW 6.0 mph9.7 kmh 29.58 in1001.7 mb 0.00 in0.0 mm 0.00 in0.0 mm 0.00 in0.0 mm
03:16 AM 28.8°F-1.8°C 18.8°F-7.3°C 66% 3.8 mph NNW6.1 kmh NNW 6.0 mph9.7 kmh 29.58 in1001.7 mb 0.00 in0.0 mm 0.00 in0.0 mm 0.00 in0.0 mm
03:15 AM 28.8°F-1.8°C 18.8°F-7.3°C 66% 3.1 mph NNW5.0 kmh NNW 6.0 mph9.7 kmh 29.58 in1001.7 mb 0.00 in0.0 mm 0.00 in0.0 mm 0.00 in0.0 mm
03:14 AM 28.8°F-1.8°C 18.8°F-7.3°C 66% 3.8 mph NNW6.1 kmh NNW 6.0 mph9.7 kmh 29.58 in1001.7 mb 0.00 in0.0 mm 0.00 in0.0 mm 0.00 in0.0 mm
03:13 AM 28.8°F-1.8°C 18.8°F-7.3°C 66% 4.5 mph NNW7.2 kmh NNW 6.0 mph9.7 kmh 29.58 in1001.7 mb 0.00 in0.0 mm 0.00 in0.0 mm 0.00 in0.0 mm
03:12 AM 28.8°F-1.8°C 18.8°F-7.3°C 66% 3.8 mph NW6.1 kmh NW 6.0 mph9.7 kmh 29.58 in1001.7 mb 0.00 in0.0 mm 0.00 in0.0 mm 0.00 in0.0 mm
03:11 AM 28.8°F-1.8°C 18.8°F-7.3°C 66% 4.5 mph NW7.2 kmh NW 6.0 mph9.7 kmh 29.58 in1001.7 mb 0.00 in0.0 mm 0.00 in0.0 mm 0.00 in0.0 mm
03:10 AM 28.8°F-1.8°C 18.8°F-7.3°C 66% 3.1 mph NNW5.0 kmh NNW 6.0 mph9.7 kmh 29.58 in1001.7 mb 0.00 in0.0 mm 0.00 in0.0 mm 0.00 in0.0 mm
03:09 AM 28.8°F-1.8°C 18.8°F-7.3°C 66% 3.8 mph NNW6.1 kmh NNW 6.0 mph9.7 kmh 29.58 in1001.7 mb 0.00 in0.0 mm 0.00 in0.0 mm 0.00 in0.0 mm
03:08 AM 28.9°F-1.7°C 19.0°F-7.2°C 66% 3.8 mph NW6.1 kmh NW 6.0 mph9.7 kmh 29.58 in1001.7 mb 0.00 in0.0 mm 0.00 in0.0 mm 0.00 in0.0 mm
03:07 AM 28.9°F-1.7°C 19.0°F-7.2°C 66% 3.1 mph NW5.0 kmh NW 6.0 mph9.7 kmh 29.58 in1001.7 mb 0.00 in0.0 mm 0.00 in0.0 mm 0.00 in0.0 mm
03:06 AM 28.9°F-1.7°C 18.6°F-7.4°C 65% 3.8 mph NNW6.1 kmh NNW 6.0 mph9.7 kmh 29.58 in1001.7 mb 0.00 in0.0 mm 0.00 in0.0 mm 0.00 in0.0 mm
03:05 AM 28.9°F-1.7°C 18.6°F-7.4°C 65% 3.1 mph NW5.0 kmh NW 6.0 mph9.7 kmh 29.58 in1001.7 mb 0.00 in0.0 mm 0.00 in0.0 mm 0.00 in0.0 mm
03:04 AM 28.9°F-1.7°C 18.6°F-7.4°C 65% 3.8 mph NW6.1 kmh NW 6.0 mph9.7 kmh 29.58 in1001.7 mb 0.00 in0.0 mm 0.00 in0.0 mm 0.00 in0.0 mm
03:03 AM 28.9°F-1.7°C 18.6°F-7.4°C 65% 3.1 mph NNW5.0 kmh NNW 6.0 mph9.7 kmh 29.58 in1001.7 mb 0.00 in0.0 mm 0.00 in0.0 mm 0.00 in0.0 mm
03:02 AM 28.9°F-1.7°C 18.6°F-7.4°C 65% 3.8 mph NNW6.1 kmh NNW 6.0 mph9.7 kmh 29.58 in1001.7 mb 0.00 in0.0 mm 0.00 in0.0 mm 0.00 in0.0 mm
03:01 AM 29.1°F-1.6°C 18.8°F-7.3°C 65% 3.1 mph NNW5.0 kmh NNW 6.0 mph9.7 kmh 29.58 in1001.7 mb 0.00 in0.0 mm 0.00 in0.0 mm 0.00 in0.0 mm
03:00 AM 29.3°F-1.5°C 19.0°F-7.2°C 65% 3.8 mph NW6.1 kmh NW 5.4 mph8.7 kmh 29.58 in1001.7 mb 0.00 in0.0 mm 0.00 in0.0 mm 0.00 in0.0 mm
02:59 AM 29.3°F-1.5°C 19.0°F-7.2°C 65% 3.1 mph NW5.0 kmh NW 5.4 mph8.7 kmh 29.58 in1001.7 mb 0.00 in0.0 mm 0.00 in0.0 mm 0.00 in0.0 mm
02:58 AM 29.3°F-1.5°C 19.0°F-7.2°C 65% 3.8 mph NW6.1 kmh NW 5.4 mph8.7 kmh 29.58 in1001.7 mb 0.00 in0.0 mm 0.00 in0.0 mm 0.00 in0.0 mm
02:57 AM 29.3°F-1.5°C 19.0°F-7.2°C 65% 3.8 mph NNW6.1 kmh NNW 5.4 mph8.7 kmh 29.58 in1001.7 mb 0.00 in0.0 mm 0.00 in0.0 mm 0.00 in0.0 mm
02:56 AM 29.3°F-1.5°C 19.0°F-7.2°C 65% 2.2 mph NNW3.5 kmh NNW 3.8 mph6.1 kmh 29.58 in1001.7 mb 0.00 in0.0 mm 0.00 in0.0 mm 0.00 in0.0 mm
02:55 AM 29.3°F-1.5°C 19.0°F-7.2°C 65% 3.1 mph NNW5.0 kmh NNW 3.8 mph6.1 kmh 29.58 in1001.7 mb 0.00 in0.0 mm 0.00 in0.0 mm 0.00 in0.0 mm
02:54 AM 29.3°F-1.5°C 19.0°F-7.2°C 65% 3.1 mph NNW5.0 kmh NNW 4.5 mph7.2 kmh 29.58 in1001.7 mb 0.00 in0.0 mm 0.00 in0.0 mm 0.00 in0.0 mm
02:53 AM 29.3°F-1.5°C 19.0°F-7.2°C 65% 3.1 mph NNW5.0 kmh NNW 5.4 mph8.7 kmh 29.58 in1001.7 mb 0.00 in0.0 mm 0.00 in0.0 mm 0.00 in0.0 mm
02:52 AM 29.3°F-1.5°C 19.0°F-7.2°C 65% 3.1 mph NNW5.0 kmh NNW 5.4 mph8.7 kmh 29.58 in1001.7 mb 0.00 in0.0 mm 0.00 in0.0 mm 0.00 in0.0 mm
02:51 AM 29.3°F-1.5°C 19.0°F-7.2°C 65% 3.1 mph NNW5.0 kmh NNW 5.4 mph8.7 kmh 29.58 in1001.7 mb 0.00 in0.0 mm 0.00 in0.0 mm 0.00 in0.0 mm
02:50 AM 29.1°F-1.6°C 18.8°F-7.3°C 65% 2.2 mph NNW3.5 kmh NNW 5.4 mph8.7 kmh 29.58 in1001.7 mb 0.00 in0.0 mm 0.00 in0.0 mm 0.00 in0.0 mm
02:49 AM 29.1°F-1.6°C 18.5°F-7.5°C 64% 1.6 mph NNW2.6 kmh NNW 5.4 mph8.7 kmh 29.58 in1001.7 mb 0.00 in0.0 mm 0.00 in0.0 mm 0.00 in0.0 mm
02:48 AM 29.1°F-1.6°C 18.5°F-7.5°C 64% 1.6 mph NNW2.6 kmh NNW 5.4 mph8.7 kmh 29.57 in1001.4 mb 0.00 in0.0 mm 0.00 in0.0 mm 0.00 in0.0 mm
02:47 AM 29.1°F-1.6°C 18.5°F-7.5°C 64% 3.1 mph NNW5.0 kmh NNW 6.0 mph9.7 kmh 29.58 in1001.7 mb 0.00 in0.0 mm 0.00 in0.0 mm 0.00 in0.0 mm
02:46 AM 29.1°F-1.6°C 18.5°F-7.5°C 64% 3.1 mph NNW5.0 kmh NNW 6.0 mph9.7 kmh 29.57 in1001.4 mb 0.00 in0.0 mm 0.00 in0.0 mm 0.00 in0.0 mm
02:45 AM 29.1°F-1.6°C 18.8°F-7.3°C 65% 3.1 mph NNW5.0 kmh NNW 6.0 mph9.7 kmh 29.58 in1001.7 mb 0.00 in0.0 mm 0.00 in0.0 mm 0.00 in0.0 mm
02:44 AM 29.1°F-1.6°C 18.8°F-7.3°C 65% 3.8 mph NNW6.1 kmh NNW 6.0 mph9.7 kmh 29.58 in1001.7 mb 0.00 in0.0 mm 0.00 in0.0 mm 0.00 in0.0 mm
02:43 AM 29.1°F-1.6°C 18.8°F-7.3°C 65% 4.5 mph NNW7.2 kmh NNW 6.0 mph9.7 kmh 29.58 in1001.7 mb 0.00 in0.0 mm 0.00 in0.0 mm 0.00 in0.0 mm
02:42 AM 29.1°F-1.6°C 18.8°F-7.3°C 65% 3.8 mph NNW6.1 kmh NNW 6.0 mph9.7 kmh 29.58 in1001.7 mb 0.00 in0.0 mm 0.00 in0.0 mm 0.00 in0.0 mm
02:41 AM 29.1°F-1.6°C 18.8°F-7.3°C 65% 3.1 mph N5.0 kmh N 6.0 mph9.7 kmh 29.58 in1001.7 mb 0.00 in0.0 mm 0.00 in0.0 mm 0.00 in0.0 mm
02:40 AM 29.1°F-1.6°C 18.8°F-7.3°C 65% 3.8 mph N6.1 kmh N 6.0 mph9.7 kmh 29.57 in1001.4 mb 0.00 in0.0 mm 0.00 in0.0 mm 0.00 in0.0 mm
02:39 AM 29.1°F-1.6°C 18.8°F-7.3°C 65% 3.8 mph N6.1 kmh N 6.0 mph9.7 kmh 29.58 in1001.7 mb 0.00 in0.0 mm 0.00 in0.0 mm 0.00 in0.0 mm
02:38 AM 29.1°F-1.6°C 18.8°F-7.3°C 65% 3.8 mph N6.1 kmh N 6.0 mph9.7 kmh 29.58 in1001.7 mb 0.00 in0.0 mm 0.00 in0.0 mm 0.00 in0.0 mm
02:37 AM 29.1°F-1.6°C 18.8°F-7.3°C 65% 3.8 mph N6.1 kmh N 6.0 mph9.7 kmh 29.58 in1001.7 mb 0.00 in0.0 mm 0.00 in0.0 mm 0.00 in0.0 mm
02:36 AM 29.1°F-1.6°C 18.8°F-7.3°C 65% 3.8 mph N6.1 kmh N 5.4 mph8.7 kmh 29.57 in1001.4 mb 0.00 in0.0 mm 0.00 in0.0 mm 0.00 in0.0 mm
02:35 AM 29.1°F-1.6°C 18.8°F-7.3°C 65% 3.8 mph N6.1 kmh N 6.0 mph9.7 kmh 29.57 in1001.4 mb 0.00 in0.0 mm 0.00 in0.0 mm 0.00 in0.0 mm
02:34 AM 29.1°F-1.6°C 18.8°F-7.3°C 65% 4.5 mph NNW7.2 kmh NNW 6.0 mph9.7 kmh 29.57 in1001.4 mb 0.00 in0.0 mm 0.00 in0.0 mm 0.00 in0.0 mm
02:33 AM 29.1°F-1.6°C 18.8°F-7.3°C 65% 4.5 mph NNW7.2 kmh NNW 6.0 mph9.7 kmh 29.57 in1001.4 mb 0.00 in0.0 mm 0.00 in0.0 mm 0.00 in0.0 mm
02:32 AM 29.1°F-1.6°C 18.8°F-7.3°C 65% 3.8 mph NNW6.1 kmh NNW 6.0 mph9.7 kmh 29.57 in1001.4 mb 0.00 in0.0 mm 0.00 in0.0 mm 0.00 in0.0 mm
02:31 AM 29.1°F-1.6°C 18.8°F-7.3°C 65% 3.8 mph NNW6.1 kmh NNW 6.0 mph9.7 kmh 29.57 in1001.4 mb 0.00 in0.0 mm 0.00 in0.0 mm 0.00 in0.0 mm
02:30 AM 29.1°F-1.6°C 18.8°F-7.3°C 65% 3.8 mph NW6.1 kmh NW 6.0 mph9.7 kmh 29.57 in1001.4 mb 0.00 in0.0 mm 0.00 in0.0 mm 0.00 in0.0 mm
02:29 AM 29.1°F-1.6°C 18.5°F-7.5°C 64% 3.8 mph NW6.1 kmh NW 6.0 mph9.7 kmh 29.57 in1001.4 mb 0.00 in0.0 mm 0.00 in0.0 mm 0.00 in0.0 mm
02:28 AM 29.3°F-1.5°C 18.6°F-7.4°C 64% 3.8 mph NW6.1 kmh NW 6.0 mph9.7 kmh 29.57 in1001.4 mb 0.00 in0.0 mm 0.00 in0.0 mm 0.00 in0.0 mm
02:27 AM 29.3°F-1.5°C 18.6°F-7.4°C 64% 4.5 mph NW7.2 kmh NW 6.0 mph9.7 kmh 29.57 in1001.4 mb 0.00 in0.0 mm 0.00 in0.0 mm 0.00 in0.0 mm
02:26 AM 29.3°F-1.5°C 18.6°F-7.4°C 64% 3.8 mph NW6.1 kmh NW 6.0 mph9.7 kmh 29.57 in1001.4 mb 0.00 in0.0 mm 0.00 in0.0 mm 0.00 in0.0 mm
02:25 AM 29.3°F-1.5°C 18.6°F-7.4°C 64% 4.5 mph NW7.2 kmh NW 6.0 mph9.7 kmh 29.57 in1001.4 mb 0.00 in0.0 mm 0.00 in0.0 mm 0.00 in0.0 mm
02:24 AM 29.5°F-1.4°C 18.8°F-7.3°C 64% 4.5 mph NW7.2 kmh NW 5.4 mph8.7 kmh 29.57 in1001.4 mb 0.00 in0.0 mm 0.00 in0.0 mm 0.00 in0.0 mm
02:23 AM 29.5°F-1.4°C 18.8°F-7.3°C 64% 3.8 mph NW6.1 kmh NW 5.4 mph8.7 kmh 29.57 in1001.4 mb 0.00 in0.0 mm 0.00 in0.0 mm 0.00 in0.0 mm
02:22 AM 29.5°F-1.4°C 18.8°F-7.3°C 64% 3.8 mph NW6.1 kmh NW 5.4 mph8.7 kmh 29.57 in1001.4 mb 0.00 in0.0 mm 0.00 in0.0 mm 0.00 in0.0 mm
02:21 AM 29.7°F-1.3°C 19.0°F-7.2°C 64% 4.5 mph NW7.2 kmh NW 6.0 mph9.7 kmh 29.57 in1001.4 mb 0.00 in0.0 mm 0.00 in0.0 mm 0.00 in0.0 mm
02:20 AM 29.7°F-1.3°C 19.0°F-7.2°C 64% 3.1 mph NW5.0 kmh NW 6.0 mph9.7 kmh 29.57 in1001.4 mb 0.00 in0.0 mm 0.00 in0.0 mm 0.00 in0.0 mm
02:19 AM 29.7°F-1.3°C 19.0°F-7.2°C 64% 3.1 mph NW5.0 kmh NW 6.0 mph9.7 kmh 29.57 in1001.4 mb 0.00 in0.0 mm 0.00 in0.0 mm 0.00 in0.0 mm
02:18 AM 29.7°F-1.3°C 19.0°F-7.2°C 64% 2.2 mph NW3.5 kmh NW 6.0 mph9.7 kmh 29.58 in1001.7 mb 0.00 in0.0 mm 0.00 in0.0 mm 0.00 in0.0 mm
02:17 AM 29.7°F-1.3°C 19.0°F-7.2°C 64% 3.1 mph NW5.0 kmh NW 6.0 mph9.7 kmh 29.57 in1001.4 mb 0.00 in0.0 mm 0.00 in0.0 mm 0.00 in0.0 mm
02:16 AM 29.7°F-1.3°C 19.0°F-7.2°C 64% 3.8 mph NW6.1 kmh NW 6.0 mph9.7 kmh 29.57 in1001.4 mb 0.00 in0.0 mm 0.00 in0.0 mm 0.00 in0.0 mm
02:15 AM 29.7°F-1.3°C 19.0°F-7.2°C 64% 3.1 mph NW5.0 kmh NW 6.0 mph9.7 kmh 29.57 in1001.4 mb 0.00 in0.0 mm 0.00 in0.0 mm 0.00 in0.0 mm
02:14 AM 29.7°F-1.3°C 18.6°F-7.4°C 63% 3.1 mph NNW5.0 kmh NNW 6.0 mph9.7 kmh 29.57 in1001.4 mb 0.00 in0.0 mm 0.00 in0.0 mm 0.00 in0.0 mm
02:13 AM 29.7°F-1.3°C 18.6°F-7.4°C 63% 3.8 mph NNW6.1 kmh NNW 6.0 mph9.7 kmh 29.57 in1001.4 mb 0.00 in0.0 mm 0.00 in0.0 mm 0.00 in0.0 mm
02:12 AM 29.7°F-1.3°C 18.6°F-7.4°C 63% 4.5 mph NNW7.2 kmh NNW 6.0 mph9.7 kmh 29.57 in1001.4 mb 0.00 in0.0 mm 0.00 in0.0 mm 0.00 in0.0 mm
02:11 AM 29.7°F-1.3°C 18.6°F-7.4°C 63% 4.5 mph N7.2 kmh N 6.0 mph9.7 kmh 29.57 in1001.4 mb 0.00 in0.0 mm 0.00 in0.0 mm 0.00 in0.0 mm
02:10 AM 29.7°F-1.3°C 18.6°F-7.4°C 63% 4.5 mph N7.2 kmh N 6.0 mph9.7 kmh 29.57 in1001.4 mb 0.00 in0.0 mm 0.00 in0.0 mm 0.00 in0.0 mm
02:09 AM 29.7°F-1.3°C 18.6°F-7.4°C 63% 4.5 mph N7.2 kmh N 6.0 mph9.7 kmh 29.57 in1001.4 mb 0.00 in0.0 mm 0.00 in0.0 mm 0.00 in0.0 mm
02:08 AM 29.8°F-1.2°C 18.8°F-7.3°C 63% 4.5 mph N7.2 kmh N 5.4 mph8.7 kmh 29.57 in1001.4 mb 0.00 in0.0 mm 0.00 in0.0 mm 0.00 in0.0 mm
02:07 AM 29.8°F-1.2°C 18.8°F-7.3°C 63% 2.2 mph N3.5 kmh N 6.0 mph9.7 kmh 29.57 in1001.4 mb 0.00 in0.0 mm 0.00 in0.0 mm 0.00 in0.0 mm
02:06 AM 30.0°F-1.1°C 18.9°F-7.3°C 63% 4.5 mph NNW7.2 kmh NNW 6.0 mph9.7 kmh 29.57 in1001.4 mb 0.00 in0.0 mm 0.00 in0.0 mm 0.00 in0.0 mm
02:05 AM 30.0°F-1.1°C 18.9°F-7.3°C 63% 4.5 mph NNW7.2 kmh NNW 6.0 mph9.7 kmh 29.57 in1001.4 mb 0.00 in0.0 mm 0.00 in0.0 mm 0.00 in0.0 mm
02:04 AM 30.0°F-1.1°C 18.9°F-7.3°C 63% 4.5 mph NNW7.2 kmh NNW 6.0 mph9.7 kmh 29.57 in1001.4 mb 0.00 in0.0 mm 0.00 in0.0 mm 0.00 in0.0 mm
02:03 AM 30.0°F-1.1°C 18.9°F-7.3°C 63% 4.5 mph NNW7.2 kmh NNW 6.0 mph9.7 kmh 29.57 in1001.4 mb 0.00 in0.0 mm 0.00 in0.0 mm 0.00 in0.0 mm
02:02 AM 30.0°F-1.1°C 18.9°F-7.3°C 63% 4.5 mph NNW7.2 kmh NNW 6.0 mph9.7 kmh 29.57 in1001.4 mb 0.00 in0.0 mm 0.00 in0.0 mm 0.00 in0.0 mm
02:01 AM 30.0°F-1.1°C 18.9°F-7.3°C 63% 4.5 mph NW7.2 kmh NW 6.0 mph9.7 kmh 29.57 in1001.4 mb 0.00 in0.0 mm 0.00 in0.0 mm 0.00 in0.0 mm
02:00 AM 30.0°F-1.1°C 18.9°F-7.3°C 63% 3.8 mph NW6.1 kmh NW 6.0 mph9.7 kmh 29.58 in1001.7 mb 0.00 in0.0 mm 0.00 in0.0 mm 0.00 in0.0 mm
01:59 AM 30.2°F-1.0°C 19.1°F-7.2°C 63% 3.1 mph NW5.0 kmh NW 6.0 mph9.7 kmh 29.57 in1001.4 mb 0.00 in0.0 mm 0.00 in0.0 mm 0.00 in0.0 mm
01:58 AM 30.2°F-1.0°C 19.1°F-7.2°C 63% 3.1 mph NW5.0 kmh NW 6.0 mph9.7 kmh 29.57 in1001.4 mb 0.00 in0.0 mm 0.00 in0.0 mm 0.00 in0.0 mm
01:57 AM 30.2°F-1.0°C 19.1°F-7.2°C 63% 3.8 mph NNW6.1 kmh NNW 6.9 mph11.1 kmh 29.57 in1001.4 mb 0.00 in0.0 mm 0.00 in0.0 mm 0.00 in0.0 mm
01:56 AM 30.2°F-1.0°C 19.1°F-7.2°C 63% 3.1 mph NNW5.0 kmh NNW 6.9 mph11.1 kmh 29.57 in1001.4 mb 0.00 in0.0 mm 0.00 in0.0 mm 0.00 in0.0 mm
01:55 AM 30.2°F-1.0°C 19.1°F-7.2°C 63% 1.6 mph N2.6 kmh N 6.9 mph11.1 kmh 29.57 in1001.4 mb 0.00 in0.0 mm 0.00 in0.0 mm 0.00 in0.0 mm
01:54 AM 30.2°F-1.0°C 19.5°F-6.9°C 64% 1.6 mph N2.6 kmh N 6.9 mph11.1 kmh 29.57 in1001.4 mb 0.00 in0.0 mm 0.00 in0.0 mm 0.00 in0.0 mm
01:53 AM 30.2°F-1.0°C 19.5°F-6.9°C 64% 2.2 mph NNW3.5 kmh NNW 6.9 mph11.1 kmh 29.57 in1001.4 mb 0.00 in0.0 mm 0.00 in0.0 mm 0.00 in0.0 mm
01:52 AM 30.2°F-1.0°C 19.5°F-6.9°C 64% 2.2 mph N3.5 kmh N 6.9 mph11.1 kmh 29.57 in1001.4 mb 0.00 in0.0 mm 0.00 in0.0 mm 0.00 in0.0 mm
01:51 AM 30.2°F-1.0°C 19.5°F-6.9°C 64% 3.1 mph N5.0 kmh N 6.9 mph11.1 kmh 29.57 in1001.4 mb 0.00 in0.0 mm 0.00 in0.0 mm 0.00 in0.0 mm
01:50 AM 30.0°F-1.1°C 19.3°F-7.1°C 64% 4.5 mph N7.2 kmh N 6.9 mph11.1 kmh 29.57 in1001.4 mb 0.00 in0.0 mm 0.00 in0.0 mm 0.00 in0.0 mm
01:49 AM 30.0°F-1.1°C 19.3°F-7.1°C 64% 2.2 mph N3.5 kmh N 6.9 mph11.1 kmh 29.57 in1001.4 mb 0.00 in0.0 mm 0.00 in0.0 mm 0.00 in0.0 mm
01:48 AM 29.8°F-1.2°C 18.8°F-7.3°C 63% 4.5 mph N7.2 kmh N 6.9 mph11.1 kmh 29.57 in1001.4 mb 0.00 in0.0 mm 0.00 in0.0 mm 0.00 in0.0 mm
01:47 AM 29.8°F-1.2°C 18.8°F-7.3°C 63% 3.1 mph NNW5.0 kmh NNW 6.9 mph11.1 kmh 29.57 in1001.4 mb 0.00 in0.0 mm 0.00 in0.0 mm 0.00 in0.0 mm
01:46 AM 29.8°F-1.2°C 18.8°F-7.3°C 63% 3.8 mph NNW6.1 kmh NNW 6.9 mph11.1 kmh 29.57 in1001.4 mb 0.00 in0.0 mm 0.00 in0.0 mm 0.00 in0.0 mm
01:45 AM 29.8°F-1.2°C 18.8°F-7.3°C 63% 3.8 mph NNW6.1 kmh NNW 6.9 mph11.1 kmh 29.57 in1001.4 mb 0.00 in0.0 mm 0.00 in0.0 mm 0.00 in0.0 mm
01:44 AM 29.8°F-1.2°C 18.8°F-7.3°C 63% 3.8 mph NNW6.1 kmh NNW 6.9 mph11.1 kmh 29.57 in1001.4 mb 0.00 in0.0 mm 0.00 in0.0 mm 0.00 in0.0 mm
01:43 AM 29.8°F-1.2°C 18.8°F-7.3°C 63% 3.8 mph NNW6.1 kmh NNW 6.9 mph11.1 kmh 29.57 in1001.4 mb 0.00 in0.0 mm 0.00 in0.0 mm 0.00 in0.0 mm
01:42 AM 29.8°F-1.2°C 18.8°F-7.3°C 63% 4.5 mph NNW7.2 kmh NNW 6.9 mph11.1 kmh 29.57 in1001.4 mb 0.00 in0.0 mm 0.00 in0.0 mm 0.00 in0.0 mm
01:41 AM 29.8°F-1.2°C 18.8°F-7.3°C 63% 4.5 mph NNW7.2 kmh NNW 6.9 mph11.1 kmh 29.57 in1001.4 mb 0.00 in0.0 mm 0.00 in0.0 mm 0.00 in0.0 mm
01:40 AM 30.0°F-1.1°C 18.9°F-7.3°C 63% 3.1 mph NNW5.0 kmh NNW 6.9 mph11.1 kmh 29.57 in1001.4 mb 0.00 in0.0 mm 0.00 in0.0 mm 0.00 in0.0 mm
01:39 AM 30.0°F-1.1°C 18.9°F-7.3°C 63% 4.5 mph NNW7.2 kmh NNW 7.6 mph12.2 kmh 29.57 in1001.4 mb 0.00 in0.0 mm 0.00 in0.0 mm 0.00 in0.0 mm
01:38 AM 30.0°F-1.1°C 18.9°F-7.3°C 63% 4.5 mph NNW7.2 kmh NNW 7.6 mph12.2 kmh 29.58 in1001.7 mb 0.00 in0.0 mm 0.00 in0.0 mm 0.00 in0.0 mm
01:37 AM 30.0°F-1.1°C 18.9°F-7.3°C 63% 3.1 mph NNW5.0 kmh NNW 7.6 mph12.2 kmh 29.57 in1001.4 mb 0.00 in0.0 mm 0.00 in0.0 mm 0.00 in0.0 mm
01:36 AM 30.0°F-1.1°C 18.9°F-7.3°C 63% 4.5 mph NNW7.2 kmh NNW 7.6 mph12.2 kmh 29.58 in1001.7 mb 0.00 in0.0 mm 0.00 in0.0 mm 0.00 in0.0 mm
01:35 AM 30.2°F-1.0°C 19.1°F-7.2°C 63% 3.8 mph NNW6.1 kmh NNW 7.6 mph12.2 kmh 29.58 in1001.7 mb 0.00 in0.0 mm 0.00 in0.0 mm 0.00 in0.0 mm
01:34 AM 30.2°F-1.0°C 19.1°F-7.2°C 63% 3.1 mph NNW5.0 kmh NNW 7.6 mph12.2 kmh 29.58 in1001.7 mb 0.00 in0.0 mm 0.00 in0.0 mm 0.00 in0.0 mm
01:33 AM 30.2°F-1.0°C 19.1°F-7.2°C 63% 3.8 mph NNW6.1 kmh NNW 7.6 mph12.2 kmh 29.57 in1001.4 mb 0.00 in0.0 mm 0.00 in0.0 mm 0.00 in0.0 mm
01:32 AM 30.2°F-1.0°C 19.1°F-7.2°C 63% 4.5 mph NNW7.2 kmh NNW 7.6 mph12.2 kmh 29.57 in1001.4 mb 0.00 in0.0 mm 0.00 in0.0 mm 0.00 in0.0 mm
01:31 AM 30.2°F-1.0°C 19.1°F-7.2°C 63% 3.8 mph NNW6.1 kmh NNW 7.6 mph12.2 kmh 29.57 in1001.4 mb 0.00 in0.0 mm 0.00 in0.0 mm 0.00 in0.0 mm
01:30 AM 30.2°F-1.0°C 19.1°F-7.2°C 63% 4.5 mph NNW7.2 kmh NNW 7.6 mph12.2 kmh 29.57 in1001.4 mb 0.00 in0.0 mm 0.00 in0.0 mm 0.00 in0.0 mm
01:29 AM 30.2°F-1.0°C 19.1°F-7.2°C 63% 6.0 mph NNW9.7 kmh NNW 7.6 mph12.2 kmh 29.57 in1001.4 mb 0.00 in0.0 mm 0.00 in0.0 mm 0.00 in0.0 mm
01:28 AM 30.4°F-0.9°C 19.3°F-7.1°C 63% 4.5 mph N7.2 kmh N 7.6 mph12.2 kmh 29.58 in1001.7 mb 0.00 in0.0 mm 0.00 in0.0 mm 0.00 in0.0 mm
01:27 AM 30.4°F-0.9°C 19.3°F-7.1°C 63% 4.5 mph NNW7.2 kmh NNW 7.6 mph12.2 kmh 29.58 in1001.7 mb 0.00 in0.0 mm 0.00 in0.0 mm 0.00 in0.0 mm
01:26 AM 30.4°F-0.9°C 19.3°F-7.1°C 63% 3.1 mph NNW5.0 kmh NNW 7.6 mph12.2 kmh 29.57 in1001.4 mb 0.00 in0.0 mm 0.00 in0.0 mm 0.00 in0.0 mm
01:25 AM 30.4°F-0.9°C 19.3°F-7.1°C 63% 4.5 mph NNW7.2 kmh NNW 7.6 mph12.2 kmh 29.58 in1001.7 mb 0.00 in0.0 mm 0.00 in0.0 mm 0.00 in0.0 mm
01:24 AM 30.4°F-0.9°C 19.3°F-7.1°C 63% 4.5 mph NNW7.2 kmh NNW 7.6 mph12.2 kmh 29.57 in1001.4 mb 0.00 in0.0 mm 0.00 in0.0 mm 0.00 in0.0 mm
01:23 AM 30.4°F-0.9°C 19.3°F-7.1°C 63% 4.5 mph NNW7.2 kmh NNW 7.6 mph12.2 kmh 29.58 in1001.7 mb 0.00 in0.0 mm 0.00 in0.0 mm 0.00 in0.0 mm
01:22 AM 30.4°F-0.9°C 19.3°F-7.1°C 63% 3.1 mph NNW5.0 kmh NNW 7.6 mph12.2 kmh 29.57 in1001.4 mb 0.00 in0.0 mm 0.00 in0.0 mm 0.00 in0.0 mm
01:21 AM 30.4°F-0.9°C 19.3°F-7.1°C 63% 4.5 mph NNW7.2 kmh NNW 7.6 mph12.2 kmh 29.58 in1001.7 mb 0.00 in0.0 mm 0.00 in0.0 mm 0.00 in0.0 mm
01:20 AM 30.2°F-1.0°C 19.1°F-7.2°C 63% 6.0 mph NNW9.7 kmh NNW 7.6 mph12.2 kmh 29.58 in1001.7 mb 0.00 in0.0 mm 0.00 in0.0 mm 0.00 in0.0 mm
01:19 AM 30.4°F-0.9°C 19.3°F-7.1°C 63% 6.0 mph N9.7 kmh N 7.6 mph12.2 kmh 29.57 in1001.4 mb 0.00 in0.0 mm 0.00 in0.0 mm 0.00 in0.0 mm
01:18 AM 30.4°F-0.9°C 19.3°F-7.1°C 63% 3.8 mph N6.1 kmh N 6.0 mph9.7 kmh 29.57 in1001.4 mb 0.00 in0.0 mm 0.00 in0.0 mm 0.00 in0.0 mm
01:17 AM 30.4°F-0.9°C 19.3°F-7.1°C 63% 3.8 mph N6.1 kmh N 6.0 mph9.7 kmh 29.57 in1001.4 mb 0.00 in0.0 mm 0.00 in0.0 mm 0.00 in0.0 mm
01:16 AM 30.6°F-0.8°C 19.5°F-6.9°C 63% 3.1 mph N5.0 kmh N 6.0 mph9.7 kmh 29.58 in1001.7 mb 0.00 in0.0 mm 0.00 in0.0 mm 0.00 in0.0 mm
01:15 AM 30.6°F-0.8°C 19.5°F-6.9°C 63% 3.1 mph N5.0 kmh N 6.0 mph9.7 kmh 29.57 in1001.4 mb 0.00 in0.0 mm 0.00 in0.0 mm 0.00 in0.0 mm
01:14 AM 30.6°F-0.8°C 19.5°F-6.9°C 63% 3.8 mph N6.1 kmh N 6.0 mph9.7 kmh 29.58 in1001.7 mb 0.00 in0.0 mm 0.00 in0.0 mm 0.00 in0.0 mm
01:13 AM 30.6°F-0.8°C 19.5°F-6.9°C 63% 4.5 mph NNE7.2 kmh NNE 6.0 mph9.7 kmh 29.57 in1001.4 mb 0.00 in0.0 mm 0.00 in0.0 mm 0.00 in0.0 mm
01:12 AM 30.6°F-0.8°C 19.5°F-6.9°C 63% 5.4 mph N8.7 kmh N 6.0 mph9.7 kmh 29.57 in1001.4 mb 0.00 in0.0 mm 0.00 in0.0 mm 0.00 in0.0 mm
01:11 AM 30.6°F-0.8°C 19.5°F-6.9°C 63% 4.5 mph N7.2 kmh N 6.0 mph9.7 kmh 29.58 in1001.7 mb 0.00 in0.0 mm 0.00 in0.0 mm 0.00 in0.0 mm
01:10 AM 30.6°F-0.8°C 19.5°F-6.9°C 63% 4.5 mph N7.2 kmh N 6.0 mph9.7 kmh 29.58 in1001.7 mb 0.00 in0.0 mm 0.00 in0.0 mm 0.00 in0.0 mm
01:09 AM 30.6°F-0.8°C 19.5°F-6.9°C 63% 3.1 mph NNE5.0 kmh NNE 6.0 mph9.7 kmh 29.57 in1001.4 mb 0.00 in0.0 mm 0.00 in0.0 mm 0.00 in0.0 mm
01:08 AM 30.7°F-0.7°C 19.6°F-6.9°C 63% 3.8 mph N6.1 kmh N 6.0 mph9.7 kmh 29.58 in1001.7 mb 0.00 in0.0 mm 0.00 in0.0 mm 0.00 in0.0 mm
01:07 AM 30.6°F-0.8°C 19.5°F-6.9°C 63% 3.8 mph N6.1 kmh N 6.9 mph11.1 kmh 29.57 in1001.4 mb 0.00 in0.0 mm 0.00 in0.0 mm 0.00 in0.0 mm
01:06 AM 30.6°F-0.8°C 19.8°F-6.8°C 64% 3.8 mph N6.1 kmh N 6.9 mph11.1 kmh 29.57 in1001.4 mb 0.00 in0.0 mm 0.00 in0.0 mm 0.00 in0.0 mm
01:05 AM 30.6°F-0.8°C 19.8°F-6.8°C 64% 3.8 mph N6.1 kmh N 6.9 mph11.1 kmh 29.58 in1001.7 mb 0.00 in0.0 mm 0.00 in0.0 mm 0.00 in0.0 mm
01:04 AM 30.6°F-0.8°C 19.5°F-6.9°C 63% 1.6 mph N2.6 kmh N 6.9 mph11.1 kmh 29.58 in1001.7 mb 0.00 in0.0 mm 0.00 in0.0 mm 0.00 in0.0 mm
01:03 AM 30.6°F-0.8°C 19.5°F-6.9°C 63% 3.1 mph N5.0 kmh N 6.9 mph11.1 kmh 29.58 in1001.7 mb 0.00 in0.0 mm 0.00 in0.0 mm 0.00 in0.0 mm
01:02 AM 30.6°F-0.8°C 19.5°F-6.9°C 63% 3.8 mph N6.1 kmh N 6.9 mph11.1 kmh 29.57 in1001.4 mb 0.00 in0.0 mm 0.00 in0.0 mm 0.00 in0.0 mm
01:01 AM 30.6°F-0.8°C 19.5°F-6.9°C 63% 4.5 mph N7.2 kmh N 6.9 mph11.1 kmh 29.57 in1001.4 mb 0.00 in0.0 mm 0.00 in0.0 mm 0.00 in0.0 mm
01:00 AM 30.6°F-0.8°C 19.8°F-6.8°C 64% 4.5 mph N7.2 kmh N 6.9 mph11.1 kmh 29.58 in1001.7 mb 0.00 in0.0 mm 0.00 in0.0 mm 0.00 in0.0 mm
12:59 AM 30.6°F-0.8°C 19.8°F-6.8°C 64% 3.8 mph NNW6.1 kmh NNW 6.9 mph11.1 kmh 29.58 in1001.7 mb 0.00 in0.0 mm 0.00 in0.0 mm 0.00 in0.0 mm
12:58 AM 30.6°F-0.8°C 19.8°F-6.8°C 64% 3.8 mph NNW6.1 kmh NNW 6.9 mph11.1 kmh 29.57 in1001.4 mb 0.00 in0.0 mm 0.00 in0.0 mm 0.00 in0.0 mm
12:57 AM 30.6°F-0.8°C 19.8°F-6.8°C 64% 4.5 mph NNW7.2 kmh NNW 6.9 mph11.1 kmh 29.57 in1001.4 mb 0.00 in0.0 mm 0.00 in0.0 mm 0.00 in0.0 mm
12:56 AM 30.7°F-0.7°C 20.0°F-6.7°C 64% 3.8 mph NW6.1 kmh NW 5.4 mph8.7 kmh 29.58 in1001.7 mb 0.00 in0.0 mm 0.00 in0.0 mm 0.00 in0.0 mm
12:55 AM 30.7°F-0.7°C 20.0°F-6.7°C 64% 3.8 mph NNW6.1 kmh NNW 5.4 mph8.7 kmh 29.57 in1001.4 mb 0.00 in0.0 mm 0.00 in0.0 mm 0.00 in0.0 mm
12:54 AM 30.7°F-0.7°C 20.0°F-6.7°C 64% 3.1 mph NNW5.0 kmh NNW 5.4 mph8.7 kmh 29.58 in1001.7 mb 0.00 in0.0 mm 0.00 in0.0 mm 0.00 in0.0 mm
12:53 AM 30.9°F-0.6°C 20.5°F-6.4°C 65% 3.1 mph N5.0 kmh N 5.4 mph8.7 kmh 29.58 in1001.7 mb 0.00 in0.0 mm 0.00 in0.0 mm 0.00 in0.0 mm
12:52 AM 30.9°F-0.6°C 20.5°F-6.4°C 65% 3.1 mph N5.0 kmh N 5.4 mph8.7 kmh 29.58 in1001.7 mb 0.00 in0.0 mm 0.00 in0.0 mm 0.00 in0.0 mm
12:51 AM 30.9°F-0.6°C 20.5°F-6.4°C 65% 3.1 mph N5.0 kmh N 5.4 mph8.7 kmh 29.58 in1001.7 mb 0.00 in0.0 mm 0.00 in0.0 mm 0.00 in0.0 mm
12:50 AM 30.9°F-0.6°C 20.5°F-6.4°C 65% 2.2 mph N3.5 kmh N 6.0 mph9.7 kmh 29.58 in1001.7 mb 0.00 in0.0 mm 0.00 in0.0 mm 0.00 in0.0 mm
12:49 AM 30.7°F-0.7°C 20.4°F-6.4°C 65% 3.8 mph N6.1 kmh N 6.9 mph11.1 kmh 29.58 in1001.7 mb 0.00 in0.0 mm 0.00 in0.0 mm 0.00 in0.0 mm
12:48 AM 30.6°F-0.8°C 19.5°F-6.9°C 63% 3.8 mph N6.1 kmh N 6.9 mph11.1 kmh 29.58 in1001.7 mb 0.00 in0.0 mm 0.00 in0.0 mm 0.00 in0.0 mm
12:47 AM 30.6°F-0.8°C 19.5°F-6.9°C 63% 3.1 mph N5.0 kmh N 6.9 mph11.1 kmh 29.58 in1001.7 mb 0.00 in0.0 mm 0.00 in0.0 mm 0.00 in0.0 mm
12:46 AM 30.6°F-0.8°C 19.5°F-6.9°C 63% 2.2 mph N3.5 kmh N 6.9 mph11.1 kmh 29.58 in1001.7 mb 0.00 in0.0 mm 0.00 in0.0 mm 0.00 in0.0 mm
12:45 AM 30.4°F-0.9°C 19.3°F-7.1°C 63% 1.6 mph N2.6 kmh N 6.9 mph11.1 kmh 29.58 in1001.7 mb 0.00 in0.0 mm 0.00 in0.0 mm 0.00 in0.0 mm
12:44 AM 30.4°F-0.9°C 19.3°F-7.1°C 63% 4.5 mph N7.2 kmh N 6.9 mph11.1 kmh 29.58 in1001.7 mb 0.00 in0.0 mm 0.00 in0.0 mm 0.00 in0.0 mm
12:43 AM 30.4°F-0.9°C 19.3°F-7.1°C 63% 3.1 mph N5.0 kmh N 6.9 mph11.1 kmh 29.58 in1001.7 mb 0.00 in0.0 mm 0.00 in0.0 mm 0.00 in0.0 mm
12:42 AM 30.4°F-0.9°C 19.3°F-7.1°C 63% 2.2 mph N3.5 kmh N 6.9 mph11.1 kmh 29.58 in1001.7 mb 0.00 in0.0 mm 0.00 in0.0 mm 0.00 in0.0 mm
12:41 AM 30.4°F-0.9°C 19.3°F-7.1°C 63% 3.1 mph NNW5.0 kmh NNW 6.9 mph11.1 kmh 29.58 in1001.7 mb 0.00 in0.0 mm 0.00 in0.0 mm 0.00 in0.0 mm
12:40 AM 30.4°F-0.9°C 19.3°F-7.1°C 63% 5.4 mph NNW8.7 kmh NNW 6.9 mph11.1 kmh 29.58 in1001.7 mb 0.00 in0.0 mm 0.00 in0.0 mm 0.00 in0.0 mm
12:39 AM 30.4°F-0.9°C 19.3°F-7.1°C 63% 5.4 mph NNW8.7 kmh NNW 6.9 mph11.1 kmh 29.58 in1001.7 mb 0.00 in0.0 mm 0.00 in0.0 mm 0.00 in0.0 mm
12:38 AM 30.4°F-0.9°C 19.3°F-7.1°C 63% 5.4 mph NNW8.7 kmh NNW 6.9 mph11.1 kmh 29.58 in1001.7 mb 0.00 in0.0 mm 0.00 in0.0 mm 0.00 in0.0 mm
12:37 AM 30.4°F-0.9°C 19.3°F-7.1°C 63% 5.4 mph NW8.7 kmh NW 6.9 mph11.1 kmh 29.57 in1001.4 mb 0.00 in0.0 mm 0.00 in0.0 mm 0.00 in0.0 mm
12:36 AM 30.4°F-0.9°C 19.3°F-7.1°C 63% 3.8 mph NNW6.1 kmh NNW 6.9 mph11.1 kmh 29.58 in1001.7 mb 0.00 in0.0 mm 0.00 in0.0 mm 0.00 in0.0 mm
12:35 AM 30.4°F-0.9°C 19.3°F-7.1°C 63% 4.5 mph NNW7.2 kmh NNW 7.6 mph12.2 kmh 29.58 in1001.7 mb 0.00 in0.0 mm 0.00 in0.0 mm 0.00 in0.0 mm
12:34 AM 30.4°F-0.9°C 19.3°F-7.1°C 63% 5.4 mph NNW8.7 kmh NNW 7.6 mph12.2 kmh 29.58 in1001.7 mb 0.00 in0.0 mm 0.00 in0.0 mm 0.00 in0.0 mm
12:33 AM 30.4°F-0.9°C 19.3°F-7.1°C 63% 5.4 mph NNW8.7 kmh NNW 7.6 mph12.2 kmh 29.58 in1001.7 mb 0.00 in0.0 mm 0.00 in0.0 mm 0.00 in0.0 mm
12:32 AM 30.4°F-0.9°C 19.3°F-7.1°C 63% 5.4 mph N8.7 kmh N 7.6 mph12.2 kmh 29.58 in1001.7 mb 0.00 in0.0 mm 0.00 in0.0 mm 0.00 in0.0 mm
12:31 AM 30.4°F-0.9°C 19.3°F-7.1°C 63% 3.8 mph N6.1 kmh N 8.3 mph13.4 kmh 29.58 in1001.7 mb 0.00 in0.0 mm 0.00 in0.0 mm 0.00 in0.0 mm
12:30 AM 30.4°F-0.9°C 19.3°F-7.1°C 63% 3.8 mph N6.1 kmh N 8.3 mph13.4 kmh 29.58 in1001.7 mb 0.00 in0.0 mm 0.00 in0.0 mm 0.00 in0.0 mm
12:29 AM 30.6°F-0.8°C 19.5°F-6.9°C 63% 4.5 mph N7.2 kmh N 8.3 mph13.4 kmh 29.58 in1001.7 mb 0.00 in0.0 mm 0.00 in0.0 mm 0.00 in0.0 mm
12:28 AM 30.6°F-0.8°C 19.5°F-6.9°C 63% 3.8 mph N6.1 kmh N 8.3 mph13.4 kmh 29.58 in1001.7 mb 0.00 in0.0 mm 0.00 in0.0 mm 0.00 in0.0 mm
12:27 AM 30.6°F-0.8°C 19.5°F-6.9°C 63% 4.5 mph N7.2 kmh N 8.3 mph13.4 kmh 29.58 in1001.7 mb 0.00 in0.0 mm 0.00 in0.0 mm 0.00 in0.0 mm
12:26 AM 30.6°F-0.8°C 19.5°F-6.9°C 63% 3.8 mph N6.1 kmh N 8.3 mph13.4 kmh 29.58 in1001.7 mb 0.00 in0.0 mm 0.00 in0.0 mm 0.00 in0.0 mm
12:25 AM 30.6°F-0.8°C 19.5°F-6.9°C 63% 6.0 mph NNW9.7 kmh NNW 8.3 mph13.4 kmh 29.58 in1001.7 mb 0.00 in0.0 mm 0.00 in0.0 mm 0.00 in0.0 mm
12:24 AM 30.6°F-0.8°C 19.5°F-6.9°C 63% 5.4 mph NNW8.7 kmh NNW 8.3 mph13.4 kmh 29.58 in1001.7 mb 0.00 in0.0 mm 0.00 in0.0 mm 0.00 in0.0 mm
12:23 AM 30.6°F-0.8°C 19.5°F-6.9°C 63% 4.5 mph NNW7.2 kmh NNW 8.3 mph13.4 kmh 29.58 in1001.7 mb 0.00 in0.0 mm 0.00 in0.0 mm 0.00 in0.0 mm
12:22 AM 30.6°F-0.8°C 19.5°F-6.9°C 63% 5.4 mph NNW8.7 kmh NNW 8.3 mph13.4 kmh 29.58 in1001.7 mb 0.00 in0.0 mm 0.00 in0.0 mm 0.00 in0.0 mm
12:21 AM 30.6°F-0.8°C 19.5°F-6.9°C 63% 6.9 mph NNW11.1 kmh NNW 8.3 mph13.4 kmh 29.58 in1001.7 mb 0.00 in0.0 mm 0.00 in0.0 mm 0.00 in0.0 mm
12:20 AM 30.6°F-0.8°C 19.5°F-6.9°C 63% 3.8 mph NNW6.1 kmh NNW 8.3 mph13.4 kmh 29.58 in1001.7 mb 0.00 in0.0 mm 0.00 in0.0 mm 0.00 in0.0 mm
12:19 AM 30.6°F-0.8°C 19.5°F-6.9°C 63% 3.1 mph NNW5.0 kmh NNW 8.3 mph13.4 kmh 29.58 in1001.7 mb 0.00 in0.0 mm 0.00 in0.0 mm 0.00 in0.0 mm
12:18 AM 30.6°F-0.8°C 19.5°F-6.9°C 63% 4.5 mph NNW7.2 kmh NNW 8.3 mph13.4 kmh 29.58 in1001.7 mb 0.00 in0.0 mm 0.00 in0.0 mm 0.00 in0.0 mm
12:17 AM 30.6°F-0.8°C 19.5°F-6.9°C 63% 3.8 mph NNW6.1 kmh NNW 8.3 mph13.4 kmh 29.58 in1001.7 mb 0.00 in0.0 mm 0.00 in0.0 mm 0.00 in0.0 mm
12:16 AM 30.6°F-0.8°C 19.5°F-6.9°C 63% 4.5 mph NNW7.2 kmh NNW 8.3 mph13.4 kmh 29.58 in1001.7 mb 0.00 in0.0 mm 0.00 in0.0 mm 0.00 in0.0 mm
12:15 AM 30.6°F-0.8°C 19.5°F-6.9°C 63% 5.4 mph NNW8.7 kmh NNW 8.3 mph13.4 kmh 29.58 in1001.7 mb 0.00 in0.0 mm 0.00 in0.0 mm 0.00 in0.0 mm
12:14 AM 30.6°F-0.8°C 19.5°F-6.9°C 63% 5.4 mph N8.7 kmh N 8.3 mph13.4 kmh 29.58 in1001.7 mb 0.00 in0.0 mm 0.00 in0.0 mm 0.00 in0.0 mm
12:13 AM 30.6°F-0.8°C 19.5°F-6.9°C 63% 7.6 mph N12.2 kmh N 8.3 mph13.4 kmh 29.58 in1001.7 mb 0.00 in0.0 mm 0.00 in0.0 mm 0.00 in0.0 mm
12:12 AM 30.6°F-0.8°C 19.5°F-6.9°C 63% 3.8 mph N6.1 kmh N 6.0 mph9.7 kmh 29.57 in1001.4 mb 0.00 in0.0 mm 0.00 in0.0 mm 0.00 in0.0 mm
12:11 AM 30.7°F-0.7°C 19.6°F-6.9°C 63% 4.5 mph NNE7.2 kmh NNE 6.0 mph9.7 kmh 29.58 in1001.7 mb 0.00 in0.0 mm 0.00 in0.0 mm 0.00 in0.0 mm
12:10 AM 30.7°F-0.7°C 19.6°F-6.9°C 63% 4.5 mph NNE7.2 kmh NNE 6.0 mph9.7 kmh 29.58 in1001.7 mb 0.00 in0.0 mm 0.00 in0.0 mm 0.00 in0.0 mm
12:09 AM 30.7°F-0.7°C 19.6°F-6.9°C 63% 4.5 mph NNE7.2 kmh NNE 6.0 mph9.7 kmh 29.57 in1001.4 mb 0.00 in0.0 mm 0.00 in0.0 mm 0.00 in0.0 mm
12:08 AM 30.7°F-0.7°C 19.6°F-6.9°C 63% 4.5 mph NNE7.2 kmh NNE 6.0 mph9.7 kmh 29.58 in1001.7 mb 0.00 in0.0 mm 0.00 in0.0 mm 0.00 in0.0 mm
12:07 AM 30.7°F-0.7°C 19.6°F-6.9°C 63% 3.8 mph NNE6.1 kmh NNE 6.0 mph9.7 kmh 29.58 in1001.7 mb 0.00 in0.0 mm 0.00 in0.0 mm 0.00 in0.0 mm
12:06 AM 30.7°F-0.7°C 19.6°F-6.9°C 63% 4.5 mph N7.2 kmh N 6.0 mph9.7 kmh 29.57 in1001.4 mb 0.00 in0.0 mm 0.00 in0.0 mm 0.00 in0.0 mm
12:05 AM 30.7°F-0.7°C 19.6°F-6.9°C 63% 4.5 mph N7.2 kmh N 6.0 mph9.7 kmh 29.58 in1001.7 mb 0.00 in0.0 mm 0.00 in0.0 mm 0.00 in0.0 mm
12:04 AM 30.7°F-0.7°C 19.6°F-6.9°C 63% 4.5 mph N7.2 kmh N 6.0 mph9.7 kmh 29.57 in1001.4 mb 0.00 in0.0 mm 0.00 in0.0 mm 0.00 in0.0 mm
12:03 AM 30.7°F-0.7°C 19.6°F-6.9°C 63% 4.5 mph N7.2 kmh N 7.6 mph12.2 kmh 29.58 in1001.7 mb 0.00 in0.0 mm 0.00 in0.0 mm 0.00 in0.0 mm
12:02 AM 30.7°F-0.7°C 19.6°F-6.9°C 63% 4.5 mph N7.2 kmh N 7.6 mph12.2 kmh 29.57 in1001.4 mb 0.00 in0.0 mm 0.00 in0.0 mm 0.00 in0.0 mm
12:01 AM 30.7°F-0.7°C 19.6°F-6.9°C 63% 4.5 mph NNW7.2 kmh NNW 7.6 mph12.2 kmh 29.57 in1001.4 mb 0.00 in0.0 mm 0.00 in0.0 mm 0.00 in0.0 mm
12:00 AM 30.7°F-0.7°C 19.6°F-6.9°C 63% 4.5 mph NNW7.2 kmh NNW 7.6 mph12.2 kmh 29.57 in1001.4 mb 0.00 in0.0 mm 0.00 in0.0 mm 0.00 in0.0 mm